Pernitas Point, Texas
Current Conditions -  °F | °C
As of 2:56 AM on Sunday 23 Nov 2014 (Local Time) from KNOG Reporting Station
Clear Clear  
Wind Chill: 58°   Ceiling: Unl
Heat Index: 58°   Visibility: 10mi
Dew Point: 57°   Wind: 0mph
Humidity: 97%   Direction: NA
Pressure: 29.77"   Gusts: NA
Location:  28.0605°N, 97.9438°W
Report Text: KNOG 230856Z AUTO 00000KT 10SM CLR 14/14 A2977 RMK AO2 SLP059 T01440139 53004 $
Loading
Personal Weather Stations






























Interactive Weather Map New forecast layout! Learn more

10-Day Weather Forecast

Advertisements
Track Severe Weather on mobile